createdAt,value
2019-01-31T00:01:39.632Z,65.77
2019-01-31T00:04:38.914Z,65.88
2019-01-31T00:07:43.360Z,65.23
2019-01-31T00:11:09.528Z,64.99
2019-01-31T00:14:17.945Z,65.25
2019-01-31T00:17:36.499Z,64.38
2019-01-31T00:20:41.123Z,64.75
2019-01-31T00:23:41.916Z,66.33
2019-01-31T00:26:41.802Z,66.49
2019-01-31T00:29:43.241Z,66.57
2019-01-31T00:32:21.118Z,66.37
2019-01-31T00:35:52.907Z,63.81
2019-01-31T00:38:59.286Z,63.25
2019-01-31T00:41:56.328Z,62.63
2019-01-31T00:45:16.019Z,64.07
2019-01-31T00:48:34.567Z,65.48
2019-01-31T00:51:28.238Z,64.30
2019-01-31T00:54:26.753Z,65.02
2019-01-31T00:57:28.169Z,64.01
2019-01-31T01:00:41.722Z,65.16
2019-01-31T01:04:04.571Z,66.16
2019-01-31T01:07:20.876Z,64.04
2019-01-31T01:10:27.505Z,64.15
2019-01-31T01:13:20.813Z,63.04
2019-01-31T01:16:24.627Z,62.76
2019-01-31T01:19:26.030Z,63.91
2019-01-31T01:22:54.563Z,64.09
2019-01-31T01:25:40.156Z,64.27
2019-01-31T01:28:47.834Z,63.56
2019-01-31T01:31:39.470Z,63.59
2019-01-31T01:34:32.136Z,64.01
2019-01-31T01:37:44.735Z,64.10
2019-01-31T01:41:03.291Z,62.71
2019-01-31T01:44:22.564Z,62.65
2019-01-31T01:47:15.834Z,63.00
2019-01-31T01:49:52.253Z,62.48
2019-01-31T01:52:36.165Z,64.33
2019-01-31T01:55:25.171Z,65.38
2019-01-31T01:58:32.559Z,64.30
2019-01-31T02:01:55.142Z,65.01
2019-01-31T02:04:59.667Z,65.07
2019-01-31T02:08:05.974Z,64.83
2019-01-31T02:11:07.003Z,64.24
2019-01-31T02:14:18.137Z,64.45
2019-01-31T02:17:12.156Z,67.73
2019-01-31T02:20:13.891Z,70.58
2019-01-31T02:23:03.835Z,70.74
2019-01-31T02:26:05.546Z,68.83
2019-01-31T02:29:18.251Z,66.19
2019-01-31T02:32:43.176Z,65.52
2019-01-31T02:35:40.528Z,66.20
2019-01-31T02:38:48.696Z,66.75
2019-01-31T02:41:45.782Z,67.84
2019-01-31T02:45:02.605Z,68.61
2019-01-31T02:48:21.684Z,70.91
2019-01-31T02:51:30.400Z,73.33
2019-01-31T02:54:12.435Z,72.84
2019-01-31T02:57:34.844Z,73.75
2019-01-31T03:00:17.455Z,74.62
2019-01-31T03:03:19.422Z,74.80
2019-01-31T03:06:26.106Z,75.59
2019-01-31T03:09:18.338Z,75.50
2019-01-31T03:12:04.523Z,75.97
2019-01-31T03:14:57.594Z,75.47
2019-01-31T03:18:06.934Z,75.91
2019-01-31T03:20:55.994Z,76.28
2019-01-31T03:24:02.568Z,76.50
2019-01-31T03:27:03.321Z,77.02
2019-01-31T03:30:02.114Z,76.73
2019-01-31T03:32:38.637Z,75.83
2019-01-31T03:35:43.176Z,75.30
2019-01-31T03:38:26.966Z,74.53
2019-01-31T03:41:36.765Z,75.54
2019-01-31T03:44:52.886Z,77.12
2019-01-31T03:48:15.432Z,79.80
2019-01-31T03:51:14.750Z,79.59
2019-01-31T03:54:23.769Z,76.82
2019-01-31T03:57:37.818Z,77.70
2019-01-31T04:00:43.080Z,81.86
2019-01-31T04:03:52.706Z,84.67
2019-01-31T04:06:28.320Z,84.45
2019-01-31T04:08:57.897Z,82.39
2019-01-31T04:11:27.573Z,79.70
2019-01-31T04:13:57.218Z,78.45
2019-01-31T04:16:26.761Z,76.95
2019-01-31T04:18:56.317Z,75.76
2019-01-31T04:21:25.946Z,77.46
2019-01-31T04:23:55.549Z,80.48
2019-01-31T04:26:25.185Z,81.21
2019-01-31T04:28:54.735Z,82.68
2019-01-31T04:31:24.357Z,83.74
2019-01-31T04:33:54.016Z,83.53
2019-01-31T04:36:23.656Z,84.41
2019-01-31T04:38:53.326Z,86.19
2019-01-31T04:41:22.897Z,86.36
2019-01-31T04:43:52.545Z,86.19
2019-01-31T04:46:22.135Z,86.59
2019-01-31T04:48:51.683Z,86.47
2019-01-31T04:51:21.342Z,86.20
2019-01-31T04:53:50.984Z,84.83
2019-01-31T04:56:20.546Z,84.69
2019-01-31T04:58:51.655Z,84.22
2019-01-31T05:01:21.284Z,82.64
2019-01-31T05:03:50.942Z,80.84
2019-01-31T05:06:20.608Z,81.43
2019-01-31T05:08:50.270Z,83.17
2019-01-31T05:11:19.897Z,82.35
2019-01-31T05:13:49.582Z,83.59
2019-01-31T05:16:19.156Z,84.75
2019-01-31T05:18:48.784Z,85.21
2019-01-31T05:21:20.968Z,86.20
2019-01-31T05:23:49.780Z,86.40
2019-01-31T05:26:19.598Z,86.48
2019-01-31T05:28:49.281Z,86.85
2019-01-31T05:31:18.808Z,87.49
2019-01-31T05:33:48.503Z,87.48
2019-01-31T05:36:18.160Z,88.04
2019-01-31T05:38:48.018Z,88.04
2019-01-31T05:41:17.676Z,88.24
2019-01-31T05:43:47.340Z,88.07
2019-01-31T05:46:18.405Z,87.37
2019-01-31T05:48:48.110Z,86.97
2019-01-31T05:51:17.757Z,87.31
2019-01-31T05:53:47.433Z,88.42
2019-01-31T05:56:17.137Z,88.70
2019-01-31T05:58:46.829Z,87.93
2019-01-31T06:01:16.474Z,87.09
2019-01-31T06:03:46.231Z,87.31
2019-01-31T06:06:15.809Z,87.44
2019-01-31T06:08:45.469Z,86.90
2019-01-31T06:11:15.108Z,86.15
2019-01-31T06:13:44.790Z,85.93
2019-01-31T06:16:14.443Z,84.19
2019-01-31T06:18:44.117Z,82.27
2019-01-31T06:21:13.753Z,81.11
2019-01-31T06:23:43.420Z,79.89
2019-01-31T06:26:12.941Z,78.25
2019-01-31T06:28:42.651Z,77.61
2019-01-31T06:31:12.290Z,75.39
2019-01-31T06:33:41.917Z,73.39
2019-01-31T06:36:11.591Z,71.88
2019-01-31T06:38:41.277Z,71.37
2019-01-31T06:41:18.213Z,71.09
2019-01-31T06:43:42.235Z,71.14
2019-01-31T06:46:11.984Z,70.64
2019-01-31T06:48:41.557Z,72.38
2019-01-31T06:51:11.250Z,74.47
2019-01-31T06:53:40.919Z,76.01
2019-01-31T06:56:10.553Z,76.61
2019-01-31T06:58:41.113Z,75.37
2019-01-31T07:01:10.882Z,77.91
2019-01-31T07:03:40.499Z,81.49
2019-01-31T07:06:10.111Z,85.11
2019-01-31T07:08:39.701Z,87.49
2019-01-31T07:11:09.337Z,87.92
2019-01-31T07:13:39.002Z,87.77
2019-01-31T07:16:08.674Z,87.03
2019-01-31T07:18:38.582Z,88.67
2019-01-31T07:21:08.273Z,89.34
2019-01-31T07:23:37.832Z,89.05
2019-01-31T07:26:07.609Z,87.85
2019-01-31T07:28:37.249Z,86.72
2019-01-31T07:31:07.049Z,86.88
2019-01-31T07:33:36.682Z,88.28
2019-01-31T07:36:06.094Z,88.76
2019-01-31T07:38:35.552Z,88.46
2019-01-31T07:41:05.063Z,88.27
2019-01-31T07:43:34.571Z,86.94
2019-01-31T07:46:04.260Z,88.36
2019-01-31T07:48:33.883Z,89.27
2019-01-31T07:51:03.440Z,90.56
2019-01-31T07:53:33.032Z,90.82
2019-01-31T07:56:02.786Z,90.27
2019-01-31T07:58:32.336Z,91.35
2019-01-31T08:01:01.849Z,90.70
2019-01-31T08:03:31.235Z,89.27
2019-01-31T08:06:00.650Z,90.28
2019-01-31T08:08:30.040Z,91.07
2019-01-31T08:11:03.643Z,90.90
2019-01-31T08:13:32.990Z,89.82
2019-01-31T08:16:02.422Z,89.91
2019-01-31T08:18:31.813Z,88.98
2019-01-31T08:21:01.240Z,88.56
2019-01-31T08:23:30.599Z,88.47
2019-01-31T08:25:59.978Z,87.69
2019-01-31T08:28:29.300Z,86.85
2019-01-31T08:30:58.748Z,86.24
2019-01-31T08:33:28.486Z,84.73
2019-01-31T08:35:58.017Z,83.69
2019-01-31T08:38:27.419Z,82.57
2019-01-31T08:40:56.936Z,83.55
2019-01-31T08:43:26.274Z,82.26
2019-01-31T08:45:55.677Z,83.12
2019-01-31T08:48:25.100Z,84.68
2019-01-31T08:50:54.499Z,85.00
2019-01-31T08:53:23.870Z,83.89
2019-01-31T08:55:53.303Z,85.33
2019-01-31T08:58:22.672Z,85.40
2019-01-31T09:00:52.022Z,84.76
2019-01-31T09:03:21.465Z,83.44
2019-01-31T09:05:50.877Z,83.59
2019-01-31T09:08:20.315Z,84.36
2019-01-31T09:10:49.790Z,84.82
2019-01-31T09:13:19.175Z,84.20
2019-01-31T09:15:48.529Z,83.70
2019-01-31T09:18:17.951Z,82.32
2019-01-31T09:21:14.398Z,82.02
2019-01-31T09:24:06.434Z,79.52
2019-01-31T09:27:14.022Z,81.34
2019-01-31T09:30:26.079Z,79.17
2019-01-31T09:33:18.589Z,78.30
2019-01-31T09:36:29.314Z,76.86
2019-01-31T09:39:32.610Z,75.25
2019-01-31T09:42:26.342Z,75.79
2019-01-31T09:45:25.997Z,77.76
2019-01-31T09:48:09.015Z,78.71
2019-01-31T09:51:29.315Z,79.10
2019-01-31T09:54:16.714Z,79.90
2019-01-31T09:57:13.286Z,79.63
2019-01-31T10:00:27.123Z,80.35
2019-01-31T10:03:36.773Z,80.28
2019-01-31T10:06:42.119Z,79.96
2019-01-31T10:09:33.002Z,80.13
2019-01-31T10:12:38.328Z,81.63
2019-01-31T10:15:30.971Z,82.24
2019-01-31T10:18:53.715Z,82.57
2019-01-31T10:21:55.484Z,82.60
2019-01-31T10:25:06.619Z,83.54
2019-01-31T10:28:20.663Z,84.26
2019-01-31T10:31:32.794Z,84.64
2019-01-31T10:34:23.208Z,84.89
2019-01-31T10:37:05.624Z,84.29
2019-01-31T10:39:57.091Z,84.21
2019-01-31T10:42:53.634Z,84.56
2019-01-31T10:45:53.872Z,84.47
2019-01-31T10:48:47.934Z,84.22
2019-01-31T10:51:44.725Z,83.38
2019-01-31T10:54:44.700Z,83.92
2019-01-31T10:58:09.504Z,84.52
2019-01-31T11:01:09.229Z,84.79
2019-01-31T11:04:10.872Z,84.29
2019-01-31T11:07:29.539Z,84.74
2019-01-31T11:10:36.198Z,84.57
2019-01-31T11:13:46.572Z,85.10
2019-01-31T11:16:39.116Z,84.40
2019-01-31T11:19:58.899Z,84.55
2019-01-31T11:23:14.998Z,85.20
2019-01-31T11:26:31.177Z,85.42
2019-01-31T11:29:40.541Z,85.12
2019-01-31T11:32:45.986Z,84.93
2019-01-31T11:36:05.564Z,85.29
2019-01-31T11:39:02.121Z,85.66
2019-01-31T11:42:21.478Z,85.90
2019-01-31T11:45:43.927Z,85.82
2019-01-31T11:48:31.875Z,85.05
2019-01-31T11:51:45.099Z,84.72
2019-01-31T11:54:44.603Z,84.70
2019-01-31T11:57:50.766Z,83.51
2019-01-31T12:00:23.392Z,82.72
2019-01-31T12:02:55.167Z,82.42
2019-01-31T12:05:24.377Z,81.87
2019-01-31T12:07:54.043Z,82.23
2019-01-31T12:10:23.972Z,81.40
2019-01-31T12:12:53.649Z,81.97
2019-01-31T12:15:23.312Z,81.48
2019-01-31T12:17:52.911Z,80.71
2019-01-31T12:20:22.498Z,81.32
2019-01-31T12:22:52.007Z,81.67
2019-01-31T12:25:21.742Z,81.18
2019-01-31T12:27:51.286Z,80.78
2019-01-31T12:30:23.945Z,79.01
2019-01-31T12:32:53.601Z,76.51
2019-01-31T12:35:23.279Z,74.87
2019-01-31T12:37:52.890Z,73.97
2019-01-31T12:40:22.571Z,72.20
2019-01-31T12:42:52.130Z,71.44
2019-01-31T12:45:22.124Z,70.21
2019-01-31T12:47:52.309Z,69.75
2019-01-31T12:50:24.921Z,69.67
2019-01-31T12:52:54.575Z,69.94
2019-01-31T12:55:24.243Z,69.15
2019-01-31T12:57:53.876Z,68.68
2019-01-31T13:00:28.255Z,68.74
2019-01-31T13:02:57.890Z,68.27
2019-01-31T13:05:27.505Z,68.84
2019-01-31T13:07:57.324Z,68.18
2019-01-31T13:10:26.986Z,68.57
2019-01-31T13:12:57.202Z,69.25
2019-01-31T13:15:29.387Z,69.16
2019-01-31T13:17:58.293Z,68.13
2019-01-31T13:20:27.926Z,67.72
2019-01-31T13:22:58.304Z,67.44
2019-01-31T13:25:28.473Z,69.14
2019-01-31T13:27:57.887Z,68.29
2019-01-31T13:30:27.662Z,67.97
2019-01-31T13:32:57.877Z,67.28
2019-01-31T13:35:27.210Z,66.13
2019-01-31T13:37:56.598Z,65.87
2019-01-31T13:40:28.332Z,65.32
2019-01-31T13:42:58.127Z,66.22
2019-01-31T13:45:29.820Z,67.65
2019-01-31T13:48:01.116Z,68.21
2019-01-31T13:50:30.473Z,67.27
2019-01-31T13:52:59.906Z,67.56
2019-01-31T13:55:30.611Z,71.26
2019-01-31T13:58:00.935Z,72.79
2019-01-31T14:00:30.356Z,73.15
2019-01-31T14:02:59.765Z,72.83
2019-01-31T14:05:30.035Z,71.21
2019-01-31T14:08:00.246Z,68.42
2019-01-31T14:10:29.595Z,67.29
2019-01-31T14:12:58.998Z,68.56
2019-01-31T14:15:34.239Z,67.92
2019-01-31T14:18:01.969Z,68.57
2019-01-31T14:20:31.341Z,69.42
2019-01-31T14:23:00.769Z,68.56
2019-01-31T14:25:30.120Z,68.77
2019-01-31T14:27:59.542Z,67.85
2019-01-31T14:30:33.523Z,69.69
2019-01-31T14:33:03.240Z,71.78
2019-01-31T14:35:32.928Z,72.42
2019-01-31T14:38:02.850Z,72.89
2019-01-31T14:40:32.801Z,71.60
2019-01-31T14:43:02.901Z,70.12
2019-01-31T14:45:32.322Z,68.91
2019-01-31T14:48:01.678Z,68.29
2019-01-31T14:50:32.533Z,69.43
2019-01-31T14:53:02.199Z,69.76
2019-01-31T14:55:31.786Z,68.84
2019-01-31T14:58:01.151Z,68.53
2019-01-31T15:00:31.913Z,68.35
2019-01-31T15:03:01.356Z,67.97
2019-01-31T15:05:30.854Z,68.30
2019-01-31T15:08:00.216Z,67.27
2019-01-31T15:10:29.889Z,64.74
2019-01-31T15:12:59.233Z,63.59
2019-01-31T15:15:28.643Z,62.78
2019-01-31T15:17:58.042Z,62.78
2019-01-31T15:20:37.507Z,62.08
2019-01-31T15:23:04.093Z,62.69
2019-01-31T15:25:33.595Z,61.35
2019-01-31T15:28:03.008Z,62.24
2019-01-31T15:30:33.878Z,62.79
2019-01-31T15:33:04.493Z,62.50
2019-01-31T15:35:33.881Z,61.84
2019-01-31T15:38:03.299Z,62.24
2019-01-31T15:40:37.833Z,61.26
2019-01-31T15:43:07.313Z,63.08
2019-01-31T15:45:36.996Z,63.48
2019-01-31T15:48:06.841Z,62.22
2019-01-31T15:50:36.329Z,63.21
2019-01-31T15:53:05.721Z,62.56
2019-01-31T15:55:35.287Z,61.73
2019-01-31T15:58:05.106Z,63.11
2019-01-31T16:00:42.247Z,62.79
2019-01-31T16:03:13.592Z,61.62
2019-01-31T16:05:43.141Z,62.09
2019-01-31T16:08:12.563Z,61.04
2019-01-31T16:10:42.049Z,62.31
2019-01-31T16:13:11.717Z,62.47
2019-01-31T16:15:41.646Z,62.44
2019-01-31T16:18:12.187Z,62.71
2019-01-31T16:20:41.940Z,63.76
2019-01-31T16:23:12.021Z,63.67
2019-01-31T16:25:41.568Z,62.56
2019-01-31T16:28:11.209Z,62.39
2019-01-31T16:30:40.881Z,63.46
2019-01-31T16:33:10.523Z,63.45
2019-01-31T16:35:41.121Z,62.70
2019-01-31T16:38:10.943Z,62.22
2019-01-31T16:40:40.566Z,61.98
2019-01-31T16:43:10.192Z,61.61
2019-01-31T16:45:39.830Z,62.31
2019-01-31T16:48:09.519Z,60.79
2019-01-31T16:50:39.209Z,60.80
2019-01-31T16:53:09.874Z,61.12
2019-01-31T16:55:39.521Z,61.35
2019-01-31T16:58:09.301Z,61.67
2019-01-31T17:00:38.895Z,61.87
2019-01-31T17:03:08.653Z,62.06
2019-01-31T17:05:38.297Z,61.81
2019-01-31T17:08:08.277Z,61.58
2019-01-31T17:10:37.925Z,61.07
2019-01-31T17:13:07.670Z,60.57
2019-01-31T17:15:37.243Z,61.09
2019-01-31T17:18:07.769Z,61.28
2019-01-31T17:20:42.482Z,60.95
2019-01-31T17:23:12.243Z,60.68
2019-01-31T17:25:41.910Z,62.06
2019-01-31T17:28:11.568Z,63.32
2019-01-31T17:30:41.278Z,64.72
2019-01-31T17:33:10.886Z,63.64
2019-01-31T17:35:40.558Z,63.04
2019-01-31T17:38:10.329Z,63.04
2019-01-31T17:40:41.274Z,64.83
2019-01-31T17:43:12.113Z,65.97
2019-01-31T17:45:41.711Z,66.92
2019-01-31T17:48:14.321Z,66.59
2019-01-31T17:50:43.939Z,67.14
2019-01-31T17:53:13.555Z,67.12
2019-01-31T17:55:43.167Z,66.76
2019-01-31T17:58:12.772Z,66.72
2019-01-31T18:00:48.818Z,68.25
2019-01-31T18:03:18.481Z,68.93
2019-01-31T18:05:48.120Z,69.38
2019-01-31T18:08:17.829Z,68.65
2019-01-31T18:10:47.487Z,67.59
2019-01-31T18:13:17.050Z,67.85
2019-01-31T18:15:46.810Z,67.23
2019-01-31T18:18:16.348Z,66.64
2019-01-31T18:20:46.037Z,66.32
2019-01-31T18:23:15.690Z,66.56
2019-01-31T18:25:45.342Z,65.95
2019-01-31T18:28:15.006Z,64.77
2019-01-31T18:30:44.649Z,63.69
2019-01-31T18:33:14.209Z,63.36
2019-01-31T18:35:45.309Z,64.44
2019-01-31T18:38:20.004Z,64.92
2019-01-31T18:40:49.652Z,64.52
2019-01-31T18:43:19.661Z,64.62
2019-01-31T18:45:53.307Z,65.22
2019-01-31T18:48:20.642Z,65.14
2019-01-31T18:50:50.234Z,65.59
2019-01-31T18:53:20.009Z,65.90
2019-01-31T18:55:49.657Z,67.24
2019-01-31T18:58:19.314Z,66.97
2019-01-31T19:00:50.191Z,67.02
2019-01-31T19:03:19.829Z,67.53
2019-01-31T19:05:49.613Z,68.53
2019-01-31T19:08:19.179Z,69.76
2019-01-31T19:10:48.790Z,70.93
2019-01-31T19:13:18.387Z,71.46
2019-01-31T19:15:48.042Z,71.35
2019-01-31T19:18:17.698Z,70.18
2019-01-31T19:20:47.353Z,70.11
2019-01-31T19:23:16.947Z,69.83
2019-01-31T19:25:47.312Z,70.39
2019-01-31T19:28:16.986Z,70.80
2019-01-31T19:30:46.587Z,70.04
2019-01-31T19:33:16.182Z,69.26
2019-01-31T19:35:45.831Z,68.43
2019-01-31T19:38:15.485Z,68.17
2019-01-31T19:40:46.379Z,69.00
2019-01-31T19:43:15.930Z,70.34
2019-01-31T19:45:47.726Z,71.41
2019-01-31T19:48:17.309Z,71.41
2019-01-31T19:50:46.959Z,74.28
2019-01-31T19:53:16.493Z,73.72
2019-01-31T19:55:46.184Z,72.10
2019-01-31T19:58:15.828Z,71.24
2019-01-31T20:00:45.457Z,69.02
2019-01-31T20:03:15.045Z,67.49
2019-01-31T20:05:44.705Z,67.53
2019-01-31T20:08:14.354Z,70.75
2019-01-31T20:10:44.008Z,74.74
2019-01-31T20:13:13.586Z,75.57
2019-01-31T20:15:43.529Z,76.02
2019-01-31T20:18:13.307Z,76.28
2019-01-31T20:20:43.027Z,77.20
2019-01-31T20:23:12.928Z,76.71
2019-01-31T20:25:42.548Z,77.20
2019-01-31T20:28:12.165Z,77.74
2019-01-31T20:30:41.730Z,77.66
2019-01-31T20:33:11.438Z,76.85
2019-01-31T20:35:41.065Z,76.18
2019-01-31T20:38:10.755Z,75.78
2019-01-31T20:40:42.010Z,76.51
2019-01-31T20:43:11.658Z,78.14
2019-01-31T20:45:41.246Z,78.07
2019-01-31T20:48:11.100Z,78.97
2019-01-31T20:50:42.226Z,79.36
2019-01-31T20:53:11.885Z,80.09
2019-01-31T20:55:41.538Z,80.51
2019-01-31T20:58:11.141Z,80.41
2019-01-31T21:00:47.796Z,79.99
2019-01-31T21:03:17.414Z,80.53
2019-01-31T21:05:47.022Z,80.00
2019-01-31T21:08:16.785Z,79.50
2019-01-31T21:10:46.419Z,79.80
2019-01-31T21:13:16.593Z,80.04
2019-01-31T21:15:46.238Z,79.82
2019-01-31T21:18:15.908Z,79.43
2019-01-31T21:20:45.690Z,79.23
2019-01-31T21:23:15.474Z,78.95
2019-01-31T21:25:45.227Z,78.87
2019-01-31T21:28:14.829Z,78.55
2019-01-31T21:30:44.405Z,77.61
2019-01-31T21:33:14.071Z,77.76
2019-01-31T21:35:43.639Z,77.54
2019-01-31T21:38:13.369Z,77.79
2019-01-31T21:40:42.976Z,77.71
2019-01-31T21:43:12.578Z,76.80
2019-01-31T21:45:42.197Z,76.06
2019-01-31T21:48:12.115Z,75.59
2019-01-31T21:50:41.588Z,75.14
2019-01-31T21:53:11.499Z,75.07
2019-01-31T21:55:41.123Z,74.48
2019-01-31T21:58:10.751Z,73.53
2019-01-31T22:00:40.208Z,73.65
2019-01-31T22:03:10.014Z,73.73
2019-01-31T22:05:39.650Z,73.35
2019-01-31T22:08:09.309Z,75.15
2019-01-31T22:10:38.971Z,75.64
2019-01-31T22:13:08.369Z,76.33
2019-01-31T22:15:37.780Z,76.57
2019-01-31T22:18:07.851Z,76.92
2019-01-31T22:20:37.470Z,76.47
2019-01-31T22:23:07.168Z,76.73
2019-01-31T22:25:36.822Z,77.41
2019-01-31T22:28:07.489Z,77.73
2019-01-31T22:30:38.398Z,78.09
2019-01-31T22:33:09.410Z,78.60
2019-01-31T22:35:39.062Z,78.49
2019-01-31T22:38:08.704Z,78.18
2019-01-31T22:40:38.429Z,78.51
2019-01-31T22:43:08.112Z,78.96
2019-01-31T22:45:37.685Z,78.55
2019-01-31T22:48:07.688Z,78.89
2019-01-31T22:50:37.080Z,78.72
2019-01-31T22:53:06.507Z,79.16
2019-01-31T22:55:35.978Z,78.52
2019-01-31T22:58:05.991Z,78.40
2019-01-31T23:01:17.789Z,78.77
2019-01-31T23:03:47.469Z,77.86
2019-01-31T23:06:17.969Z,78.25
2019-01-31T23:08:47.552Z,76.91
2019-01-31T23:11:17.248Z,77.70
2019-01-31T23:13:46.903Z,77.28
2019-01-31T23:16:16.535Z,77.16
2019-01-31T23:18:46.092Z,77.48
2019-01-31T23:21:15.480Z,77.12
2019-01-31T23:23:45.112Z,77.08
2019-01-31T23:26:14.750Z,76.02
2019-01-31T23:28:44.332Z,75.82
2019-01-31T23:31:13.986Z,75.61
2019-01-31T23:33:43.534Z,75.35
2019-01-31T23:36:13.195Z,75.95
2019-01-31T23:38:42.722Z,75.96
2019-01-31T23:41:12.387Z,76.94
2019-01-31T23:43:41.982Z,77.57
2019-01-31T23:46:11.619Z,78.03
2019-01-31T23:48:41.260Z,78.91
2019-01-31T23:51:11.047Z,78.50
2019-01-31T23:53:40.709Z,79.28
2019-01-31T23:56:10.370Z,80.30
2019-01-31T23:58:40.340Z,80.72
